BAW173 EBBR-EDDF
Flight info
| Callsign | BAW173 |
|---|---|
| Flight time | 0h 40m |
| Altitude | 23000 |
| Route | SPI T180 NIVNU T847 IMCOM IMCOM1A |
| Aircraft | A320/M-SDE3FGHIRWY/LB1 |
Departure
| Time | 2026-04-14 08:11 |
|---|---|
| Airport | Brussels Airport (EBBR) |
Arrival
| Time | 2026-04-14 08:52 |
|---|---|
| Airport | Frankfurt Main Airport (EDDF) |
| Time | Latitude | Longitude | Altitude | Speed | Heading |
|---|---|---|---|---|---|
| 2026-04-14 07:47 | 50.90050 | 4.48634 | 145 ft | 0 kts | 156° |
| 2026-04-14 08:01 | 50.90051 | 4.48633 | 144 ft | 1 kts | 156° |
| 2026-04-14 08:01 | 50.90049 | 4.48635 | 145 ft | 3 kts | 170° |
| 2026-04-14 08:01 | 50.90066 | 4.48632 | 144 ft | 3 kts | 160° |
| 2026-04-14 08:02 | 50.90082 | 4.48616 | 144 ft | 3 kts | 126° |
| 2026-04-14 08:02 | 50.90093 | 4.48589 | 143 ft | 3 kts | 121° |
| 2026-04-14 08:02 | 50.90099 | 4.48573 | 143 ft | 1 kts | 127° |
| 2026-04-14 08:02 | 50.90101 | 4.48570 | 143 ft | 0 kts | 127° |
| 2026-04-14 08:06 | 50.90102 | 4.48573 | 143 ft | 1 kts | 103° |
| 2026-04-14 08:07 | 50.90115 | 4.48604 | 142 ft | 8 kts | 55° |
| 2026-04-14 08:07 | 50.90158 | 4.48733 | 142 ft | 19 kts | 66° |
| 2026-04-14 08:07 | 50.90210 | 4.48914 | 142 ft | 17 kts | 65° |
| 2026-04-14 08:07 | 50.90264 | 4.49101 | 141 ft | 21 kts | 66° |
| 2026-04-14 08:08 | 50.90332 | 4.49337 | 137 ft | 26 kts | 65° |
| 2026-04-14 08:08 | 50.90395 | 4.49549 | 135 ft | 14 kts | 55° |
| 2026-04-14 08:08 | 50.90490 | 4.49606 | 136 ft | 16 kts | 15° |
| 2026-04-14 08:08 | 50.90616 | 4.49659 | 133 ft | 21 kts | 14° |
| 2026-04-14 08:09 | 50.90772 | 4.49722 | 133 ft | 25 kts | 14° |
| 2026-04-14 08:09 | 50.90916 | 4.49787 | 125 ft | 18 kts | 24° |
| 2026-04-14 08:09 | 50.90938 | 4.49807 | 124 ft | 4 kts | 34° |
| 2026-04-14 08:09 | 50.90992 | 4.49866 | 125 ft | 15 kts | 35° |
| 2026-04-14 08:10 | 50.91110 | 4.49949 | 121 ft | 19 kts | 354° |
| 2026-04-14 08:10 | 50.91131 | 4.49880 | 123 ft | 7 kts | 264° |
| 2026-04-14 08:10 | 50.91115 | 4.49801 | 121 ft | 8 kts | 245° |
| 2026-04-14 08:10 | 50.91113 | 4.49795 | 122 ft | 0 kts | 245° |
| 2026-04-14 08:11 | 50.91041 | 4.49544 | 127 ft | 62 kts | 245° |
| 2026-04-14 08:11 | 50.90770 | 4.48610 | 135 ft | 122 kts | 245° |
| 2026-04-14 08:11 | 50.90351 | 4.47178 | 308 ft | 151 kts | 245° |
| 2026-04-14 08:11 | 50.89939 | 4.45664 | 1014 ft | 149 kts | 246° |
| 2026-04-14 08:12 | 50.89530 | 4.44128 | 1571 ft | 157 kts | 247° |
| 2026-04-14 08:12 | 50.89042 | 4.42447 | 1893 ft | 180 kts | 239° |
| 2026-04-14 08:12 | 50.88215 | 4.40800 | 2206 ft | 204 kts | 223° |
| 2026-04-14 08:12 | 50.86960 | 4.39484 | 2609 ft | 230 kts | 204° |
| 2026-04-14 08:13 | 50.85325 | 4.38863 | 3171 ft | 253 kts | 182° |
| 2026-04-14 08:13 | 50.83557 | 4.39266 | 4055 ft | 263 kts | 161° |
| 2026-04-14 08:13 | 50.81984 | 4.40692 | 5039 ft | 269 kts | 139° |
| 2026-04-14 08:13 | 50.80838 | 4.43040 | 6015 ft | 274 kts | 116° |
| 2026-04-14 08:14 | 50.80366 | 4.45966 | 6968 ft | 279 kts | 92° |
| 2026-04-14 08:14 | 50.80587 | 4.49032 | 7873 ft | 283 kts | 81° |
| 2026-04-14 08:14 | 50.80834 | 4.52145 | 8791 ft | 287 kts | 85° |
| 2026-04-14 08:14 | 50.80914 | 4.55316 | 9690 ft | 291 kts | 90° |
| 2026-04-14 08:15 | 50.80808 | 4.58531 | 10510 ft | 295 kts | 95° |
| 2026-04-14 08:15 | 50.80504 | 4.61776 | 11260 ft | 301 kts | 101° |
| 2026-04-14 08:15 | 50.80003 | 4.65017 | 12007 ft | 307 kts | 106° |
| 2026-04-14 08:15 | 50.79308 | 4.68212 | 12594 ft | 319 kts | 111° |
| 2026-04-14 08:16 | 50.78386 | 4.71599 | 12800 ft | 343 kts | 111° |
| 2026-04-14 08:16 | 50.77590 | 4.75220 | 12940 ft | 365 kts | 107° |
| 2026-04-14 08:16 | 50.76723 | 4.79097 | 13342 ft | 379 kts | 110° |
| 2026-04-14 08:16 | 50.75727 | 4.82997 | 13970 ft | 386 kts | 111° |
| 2026-04-14 08:17 | 50.74648 | 4.86901 | 14573 ft | 391 kts | 113° |
| 2026-04-14 08:17 | 50.73499 | 4.90809 | 15196 ft | 394 kts | 115° |
| 2026-04-14 08:17 | 50.72302 | 4.94724 | 15824 ft | 398 kts | 115° |
| 2026-04-14 08:17 | 50.71492 | 4.97331 | 16243 ft | 400 kts | 116° |
| 2026-04-14 08:18 | 50.70260 | 5.01281 | 16888 ft | 403 kts | 116° |
| 2026-04-14 08:18 | 50.69025 | 5.05269 | 17547 ft | 406 kts | 116° |
| 2026-04-14 08:18 | 50.67788 | 5.09301 | 18215 ft | 410 kts | 116° |
| 2026-04-14 08:18 | 50.66548 | 5.13376 | 18834 ft | 413 kts | 115° |
| 2026-04-14 08:19 | 50.65297 | 5.17503 | 19429 ft | 417 kts | 115° |
| 2026-04-14 08:19 | 50.64038 | 5.21648 | 20025 ft | 420 kts | 115° |
| 2026-04-14 08:19 | 50.62766 | 5.25812 | 20600 ft | 424 kts | 116° |
| 2026-04-14 08:19 | 50.61476 | 5.30016 | 21139 ft | 427 kts | 116° |
| 2026-04-14 08:20 | 50.60177 | 5.34233 | 21661 ft | 430 kts | 116° |
| 2026-04-14 08:20 | 50.58881 | 5.38436 | 22155 ft | 433 kts | 116° |
| 2026-04-14 08:20 | 50.57558 | 5.42728 | 22638 ft | 436 kts | 116° |
| 2026-04-14 08:20 | 50.56226 | 5.47043 | 23069 ft | 439 kts | 116° |
| 2026-04-14 08:21 | 50.54880 | 5.51382 | 23175 ft | 445 kts | 116° |
| 2026-04-14 08:21 | 50.53500 | 5.55821 | 23185 ft | 458 kts | 116° |
| 2026-04-14 08:21 | 50.52096 | 5.60361 | 23179 ft | 464 kts | 115° |
| 2026-04-14 08:21 | 50.50959 | 5.65112 | 23176 ft | 465 kts | 106° |
| 2026-04-14 08:22 | 50.50060 | 5.70002 | 23176 ft | 466 kts | 106° |
| 2026-04-14 08:22 | 50.49154 | 5.74888 | 23180 ft | 466 kts | 106° |
| 2026-04-14 08:22 | 50.48237 | 5.79785 | 23177 ft | 466 kts | 106° |
| 2026-04-14 08:22 | 50.47316 | 5.84665 | 23177 ft | 466 kts | 107° |
| 2026-04-14 08:23 | 50.46408 | 5.89465 | 23177 ft | 466 kts | 107° |
| 2026-04-14 08:23 | 50.45486 | 5.94343 | 23165 ft | 465 kts | 107° |
| 2026-04-14 08:23 | 50.44563 | 5.99228 | 23164 ft | 465 kts | 107° |
| 2026-04-14 08:23 | 50.43639 | 6.04104 | 23159 ft | 465 kts | 107° |
| 2026-04-14 08:24 | 50.42716 | 6.08966 | 23166 ft | 465 kts | 107° |
| 2026-04-14 08:24 | 50.41792 | 6.13815 | 23151 ft | 464 kts | 107° |
| 2026-04-14 08:24 | 50.40866 | 6.18663 | 23148 ft | 464 kts | 107° |
| 2026-04-14 08:24 | 50.39938 | 6.23504 | 23146 ft | 464 kts | 107° |
| 2026-04-14 08:25 | 50.39008 | 6.28340 | 23140 ft | 463 kts | 107° |
| 2026-04-14 08:25 | 50.38076 | 6.33174 | 23140 ft | 463 kts | 107° |
| 2026-04-14 08:25 | 50.37141 | 6.38006 | 23138 ft | 463 kts | 107° |
| 2026-04-14 08:25 | 50.36390 | 6.42842 | 23136 ft | 463 kts | 99° |
| 2026-04-14 08:26 | 50.36025 | 6.47854 | 23145 ft | 463 kts | 95° |
| 2026-04-14 08:26 | 50.35726 | 6.52875 | 23148 ft | 463 kts | 95° |
| 2026-04-14 08:26 | 50.35416 | 6.57898 | 23150 ft | 463 kts | 96° |
| 2026-04-14 08:26 | 50.35099 | 6.62910 | 23150 ft | 463 kts | 96° |
| 2026-04-14 08:27 | 50.34775 | 6.67933 | 23075 ft | 463 kts | 96° |
| 2026-04-14 08:27 | 50.34450 | 6.72941 | 22804 ft | 461 kts | 96° |
| 2026-04-14 08:27 | 50.34123 | 6.77939 | 22528 ft | 460 kts | 96° |
| 2026-04-14 08:27 | 50.33757 | 6.82901 | 22258 ft | 458 kts | 99° |
| 2026-04-14 08:28 | 50.33001 | 6.87729 | 21990 ft | 456 kts | 108° |
| 2026-04-14 08:28 | 50.31800 | 6.92309 | 21725 ft | 454 kts | 115° |
| 2026-04-14 08:28 | 50.30469 | 6.96760 | 21464 ft | 450 kts | 115° |
| 2026-04-14 08:28 | 50.29142 | 7.01191 | 21201 ft | 448 kts | 115° |
| 2026-04-14 08:29 | 50.27826 | 7.05597 | 20945 ft | 446 kts | 115° |
| 2026-04-14 08:29 | 50.26511 | 7.10001 | 20688 ft | 445 kts | 115° |
| 2026-04-14 08:29 | 50.25207 | 7.14370 | 20251 ft | 443 kts | 115° |
| 2026-04-14 08:29 | 50.23923 | 7.18661 | 19673 ft | 439 kts | 115° |
| 2026-04-14 08:30 | 50.22630 | 7.22970 | 19103 ft | 436 kts | 115° |
| 2026-04-14 08:30 | 50.21346 | 7.27240 | 18535 ft | 433 kts | 115° |
| 2026-04-14 08:30 | 50.20066 | 7.31492 | 17920 ft | 430 kts | 115° |
| 2026-04-14 08:30 | 50.18854 | 7.35736 | 17369 ft | 426 kts | 113° |
| 2026-04-14 08:31 | 50.17765 | 7.40012 | 16809 ft | 422 kts | 112° |
| 2026-04-14 08:31 | 50.15804 | 7.48564 | 15723 ft | 415 kts | 111° |
| 2026-04-14 08:31 | 50.14855 | 7.52791 | 15190 ft | 411 kts | 111° |
| 2026-04-14 08:32 | 50.13894 | 7.56979 | 14656 ft | 408 kts | 112° |
| 2026-04-14 08:32 | 50.12919 | 7.61115 | 14126 ft | 405 kts | 112° |
| 2026-04-14 08:32 | 50.11933 | 7.65207 | 13559 ft | 402 kts | 113° |
| 2026-04-14 08:32 | 50.10761 | 7.69118 | 13042 ft | 396 kts | 122° |
| 2026-04-14 08:33 | 50.09243 | 7.72632 | 12835 ft | 394 kts | 127° |
| 2026-04-14 08:33 | 50.07675 | 7.76130 | 12569 ft | 397 kts | 126° |
| 2026-04-14 08:33 | 50.06116 | 7.79643 | 12281 ft | 393 kts | 126° |
| 2026-04-14 08:33 | 50.04571 | 7.83133 | 12019 ft | 391 kts | 126° |
| 2026-04-14 08:34 | 50.03026 | 7.86619 | 11764 ft | 389 kts | 126° |
| 2026-04-14 08:34 | 50.01719 | 7.90305 | 11490 ft | 390 kts | 114° |
| 2026-04-14 08:34 | 50.00970 | 7.94349 | 11226 ft | 390 kts | 100° |
| 2026-04-14 08:34 | 50.00827 | 7.98554 | 11055 ft | 391 kts | 87° |
| 2026-04-14 08:35 | 50.01281 | 8.02703 | 10959 ft | 391 kts | 74° |
| 2026-04-14 08:35 | 50.02190 | 8.06616 | 10855 ft | 375 kts | 69° |
| 2026-04-14 08:35 | 50.03095 | 8.10310 | 10733 ft | 356 kts | 69° |
| 2026-04-14 08:35 | 50.03952 | 8.13833 | 10594 ft | 341 kts | 69° |
| 2026-04-14 08:36 | 50.04763 | 8.17174 | 10483 ft | 327 kts | 69° |
| 2026-04-14 08:36 | 50.05552 | 8.20424 | 10362 ft | 315 kts | 69° |
| 2026-04-14 08:36 | 50.06314 | 8.23570 | 10221 ft | 305 kts | 69° |
| 2026-04-14 08:36 | 50.07056 | 8.26632 | 10001 ft | 299 kts | 70° |
| 2026-04-14 08:37 | 50.07781 | 8.29642 | 9867 ft | 296 kts | 70° |
| 2026-04-14 08:37 | 50.08502 | 8.32643 | 9733 ft | 295 kts | 69° |
| 2026-04-14 08:37 | 50.09220 | 8.35634 | 9599 ft | 295 kts | 69° |
| 2026-04-14 08:37 | 50.09939 | 8.38622 | 9465 ft | 293 kts | 69° |
| 2026-04-14 08:38 | 50.10656 | 8.41589 | 9327 ft | 293 kts | 69° |
| 2026-04-14 08:38 | 50.11373 | 8.44558 | 9193 ft | 293 kts | 69° |
| 2026-04-14 08:38 | 50.12084 | 8.47531 | 9060 ft | 293 kts | 69° |
| 2026-04-14 08:38 | 50.12795 | 8.50506 | 8931 ft | 292 kts | 69° |
| 2026-04-14 08:39 | 50.13499 | 8.53465 | 8583 ft | 291 kts | 69° |
| 2026-04-14 08:39 | 50.14198 | 8.56404 | 8292 ft | 287 kts | 68° |
| 2026-04-14 08:39 | 50.14893 | 8.59323 | 7966 ft | 285 kts | 68° |
| 2026-04-14 08:39 | 50.15580 | 8.62217 | 7648 ft | 284 kts | 68° |
| 2026-04-14 08:40 | 50.16261 | 8.65087 | 7366 ft | 280 kts | 68° |
| 2026-04-14 08:40 | 50.16936 | 8.67926 | 7064 ft | 278 kts | 66° |
| 2026-04-14 08:40 | 50.17607 | 8.70751 | 6755 ft | 276 kts | 68° |
| 2026-04-14 08:40 | 50.18271 | 8.73549 | 6351 ft | 273 kts | 68° |
| 2026-04-14 08:41 | 50.18926 | 8.76307 | 5927 ft | 269 kts | 68° |
| 2026-04-14 08:41 | 50.19574 | 8.79032 | 5534 ft | 266 kts | 68° |
| 2026-04-14 08:41 | 50.20210 | 8.81721 | 5196 ft | 261 kts | 68° |
| 2026-04-14 08:41 | 50.20837 | 8.84382 | 5156 ft | 261 kts | 68° |
| 2026-04-14 08:42 | 50.21456 | 8.87022 | 5156 ft | 262 kts | 68° |
| 2026-04-14 08:42 | 50.21782 | 8.89718 | 5149 ft | 244 kts | 89° |
| 2026-04-14 08:42 | 50.21451 | 8.92178 | 5154 ft | 222 kts | 111° |
| 2026-04-14 08:42 | 50.20662 | 8.94081 | 5174 ft | 199 kts | 131° |
| 2026-04-14 08:43 | 50.19657 | 8.95304 | 5164 ft | 167 kts | 150° |
| 2026-04-14 08:43 | 50.18619 | 8.95941 | 5157 ft | 157 kts | 166° |
| 2026-04-14 08:43 | 50.17536 | 8.96129 | 5162 ft | 157 kts | 180° |
| 2026-04-14 08:43 | 50.16447 | 8.96104 | 5155 ft | 157 kts | 189° |
| 2026-04-14 08:44 | 50.15438 | 8.95603 | 5159 ft | 154 kts | 210° |
| 2026-04-14 08:44 | 50.14606 | 8.94589 | 5153 ft | 151 kts | 237° |
| 2026-04-14 08:44 | 50.14130 | 8.93166 | 5172 ft | 148 kts | 249° |
| 2026-04-14 08:44 | 50.13712 | 8.91695 | 5166 ft | 149 kts | 252° |
| 2026-04-14 08:45 | 50.13329 | 8.90205 | 5160 ft | 147 kts | 254° |
| 2026-04-14 08:45 | 50.12963 | 8.88713 | 5165 ft | 147 kts | 253° |
| 2026-04-14 08:45 | 50.12606 | 8.87220 | 5162 ft | 147 kts | 254° |
| 2026-04-14 08:45 | 50.12252 | 8.85730 | 5163 ft | 147 kts | 254° |
| 2026-04-14 08:46 | 50.11900 | 8.84239 | 5163 ft | 147 kts | 254° |
| 2026-04-14 08:46 | 50.11548 | 8.82746 | 5165 ft | 147 kts | 255° |
| 2026-04-14 08:46 | 50.11196 | 8.81256 | 5163 ft | 146 kts | 254° |
| 2026-04-14 08:46 | 50.10844 | 8.79760 | 5167 ft | 147 kts | 255° |
| 2026-04-14 08:47 | 50.10491 | 8.78266 | 5167 ft | 147 kts | 255° |
| 2026-04-14 08:47 | 50.10143 | 8.76796 | 5009 ft | 142 kts | 254° |
| 2026-04-14 08:47 | 50.09799 | 8.75339 | 4585 ft | 144 kts | 255° |
| 2026-04-14 08:47 | 50.09452 | 8.73869 | 4161 ft | 145 kts | 255° |
| 2026-04-14 08:48 | 50.09103 | 8.72393 | 3753 ft | 145 kts | 255° |
| 2026-04-14 08:48 | 50.08751 | 8.70908 | 3365 ft | 146 kts | 255° |
| 2026-04-14 08:48 | 50.08399 | 8.69424 | 2989 ft | 146 kts | 255° |
| 2026-04-14 08:48 | 50.08052 | 8.67958 | 2623 ft | 144 kts | 254° |
| 2026-04-14 08:49 | 50.07707 | 8.66505 | 2358 ft | 142 kts | 253° |
| 2026-04-14 08:49 | 50.07367 | 8.65074 | 2115 ft | 140 kts | 254° |
| 2026-04-14 08:49 | 50.07030 | 8.63655 | 1900 ft | 139 kts | 253° |
| 2026-04-14 08:49 | 50.06695 | 8.62244 | 1691 ft | 139 kts | 253° |
| 2026-04-14 08:50 | 50.06360 | 8.60839 | 1487 ft | 138 kts | 252° |
| 2026-04-14 08:50 | 50.06028 | 8.59443 | 1278 ft | 137 kts | 253° |
| 2026-04-14 08:50 | 50.05697 | 8.58058 | 1086 ft | 136 kts | 253° |
| 2026-04-14 08:50 | 50.05377 | 8.56698 | 876 ft | 134 kts | 253° |
| 2026-04-14 08:51 | 50.05057 | 8.55331 | 669 ft | 134 kts | 253° |
| 2026-04-14 08:51 | 50.04725 | 8.53983 | 509 ft | 133 kts | 252° |
| 2026-04-14 08:51 | 50.04405 | 8.52630 | 368 ft | 130 kts | 252° |
| 2026-04-14 08:51 | 50.04129 | 8.51463 | 345 ft | 94 kts | 249° |
| 2026-04-14 08:52 | 50.03960 | 8.50761 | 352 ft | 44 kts | 249° |
| 2026-04-14 08:52 | 50.03824 | 8.50368 | 346 ft | 41 kts | 226° |
| 2026-04-14 08:52 | 50.03725 | 8.50234 | 353 ft | 7 kts | 220° |
| 2026-04-14 08:52 | 50.03694 | 8.50197 | 345 ft | 5 kts | 213° |
| 2026-04-14 08:53 | 50.03652 | 8.50191 | 345 ft | 8 kts | 165° |
| 2026-04-14 08:53 | 50.03627 | 8.50267 | 345 ft | 10 kts | 84° |
| 2026-04-14 08:53 | 50.03654 | 8.50381 | 350 ft | 13 kts | 68° |
| 2026-04-14 08:53 | 50.03688 | 8.50530 | 348 ft | 16 kts | 71° |
| 2026-04-14 08:54 | 50.03731 | 8.50715 | 348 ft | 20 kts | 70° |
| 2026-04-14 08:54 | 50.03783 | 8.50934 | 349 ft | 23 kts | 69° |
| 2026-04-14 08:54 | 50.03843 | 8.51184 | 349 ft | 26 kts | 69° |
| 2026-04-14 08:54 | 50.03909 | 8.51466 | 353 ft | 29 kts | 70° |
| 2026-04-14 08:55 | 50.03983 | 8.51776 | 353 ft | 32 kts | 70° |
| 2026-04-14 08:55 | 50.04064 | 8.52109 | 346 ft | 34 kts | 69° |
| 2026-04-14 08:55 | 50.04150 | 8.52467 | 348 ft | 36 kts | 70° |
| 2026-04-14 08:55 | 50.04241 | 8.52846 | 355 ft | 38 kts | 69° |
| 2026-04-14 08:56 | 50.04331 | 8.53217 | 349 ft | 19 kts | 71° |
| 2026-04-14 08:56 | 50.04379 | 8.53415 | 349 ft | 17 kts | 68° |
| 2026-04-14 08:56 | 50.04404 | 8.53611 | 346 ft | 20 kts | 84° |
| 2026-04-14 08:56 | 50.04420 | 8.53845 | 346 ft | 23 kts | 83° |
| 2026-04-14 08:57 | 50.04437 | 8.54111 | 346 ft | 26 kts | 85° |
| 2026-04-14 08:57 | 50.04451 | 8.54408 | 347 ft | 28 kts | 85° |
| 2026-04-14 08:57 | 50.04412 | 8.54636 | 348 ft | 23 kts | 126° |
| 2026-04-14 08:57 | 50.04278 | 8.54793 | 349 ft | 26 kts | 158° |
| 2026-04-14 08:58 | 50.04162 | 8.54856 | 355 ft | 9 kts | 160° |
| 2026-04-14 08:58 | 50.04095 | 8.54896 | 350 ft | 12 kts | 159° |